createdAt,value
2018-03-18T00:01:11.343Z,-2.92
2018-03-18T00:03:38.983Z,-2.89
2018-03-18T00:06:06.587Z,-2.87
2018-03-18T00:08:34.202Z,-2.90
2018-03-18T00:11:01.796Z,-2.94
2018-03-18T00:13:29.410Z,-2.95
2018-03-18T00:15:57.028Z,-3.00
2018-03-18T00:18:24.626Z,-3.05
2018-03-18T00:20:52.262Z,-3.08
2018-03-18T00:23:19.903Z,-3.11
2018-03-18T00:25:47.526Z,-3.16
2018-03-18T00:28:15.138Z,-3.17
2018-03-18T00:30:42.745Z,-3.16
2018-03-18T00:33:10.390Z,-3.17
2018-03-18T00:35:37.955Z,-3.21
2018-03-18T00:38:05.526Z,-3.22
2018-03-18T00:40:33.297Z,-3.20
2018-03-18T00:43:00.937Z,-3.23
2018-03-18T00:45:28.526Z,-3.22
2018-03-18T00:47:56.161Z,-3.26
2018-03-18T00:50:23.770Z,-3.19
2018-03-18T00:52:51.357Z,-3.25
2018-03-18T00:55:18.982Z,-3.32
2018-03-18T00:57:46.548Z,-3.34
2018-03-18T01:00:14.207Z,-3.34
2018-03-18T01:02:41.784Z,-3.35
2018-03-18T01:05:09.355Z,-3.38
2018-03-18T01:07:36.979Z,-3.37
2018-03-18T01:10:04.579Z,-3.36
2018-03-18T01:12:32.178Z,-3.36
2018-03-18T01:14:59.819Z,-3.41
2018-03-18T01:17:27.430Z,-3.41
2018-03-18T01:19:55.075Z,-3.42
2018-03-18T01:22:22.664Z,-3.41
2018-03-18T01:24:50.229Z,-3.41
2018-03-18T01:27:17.867Z,-3.43
2018-03-18T01:29:45.462Z,-3.44
2018-03-18T01:32:13.042Z,-3.43
2018-03-18T01:34:40.804Z,-3.48
2018-03-18T01:37:08.492Z,-3.47
2018-03-18T01:39:36.134Z,-3.47
2018-03-18T01:42:03.777Z,-3.51
2018-03-18T01:44:31.429Z,-3.49
2018-03-18T01:46:59.094Z,-3.42
2018-03-18T01:49:26.879Z,-3.40
2018-03-18T01:51:54.448Z,-3.44
2018-03-18T01:54:22.016Z,-3.46
2018-03-18T01:56:49.626Z,-3.48
2018-03-18T01:59:17.277Z,-3.45
2018-03-18T02:01:44.851Z,-3.48
2018-03-18T02:04:12.415Z,-3.44
2018-03-18T02:06:40.053Z,-3.47
2018-03-18T02:09:07.641Z,-3.49
2018-03-18T02:11:35.225Z,-3.52
2018-03-18T02:14:02.831Z,-3.50
2018-03-18T02:16:30.525Z,-3.54
2018-03-18T02:18:58.095Z,-3.54
2018-03-18T02:21:25.682Z,-3.56
2018-03-18T02:23:53.339Z,-3.58
2018-03-18T02:26:20.922Z,-3.60
2018-03-18T02:28:48.506Z,-3.60
2018-03-18T02:31:16.146Z,-3.60
2018-03-18T02:33:43.729Z,-3.63
2018-03-18T02:36:11.288Z,-3.65
2018-03-18T02:38:38.930Z,-3.63
2018-03-18T02:41:06.583Z,-3.67
2018-03-18T02:43:34.158Z,-3.66
2018-03-18T02:46:01.772Z,-3.68
2018-03-18T02:48:29.378Z,-3.67
2018-03-18T02:50:56.951Z,-3.70
2018-03-18T02:53:24.592Z,-3.70
2018-03-18T02:55:52.170Z,-3.76
2018-03-18T02:58:19.793Z,-3.77
2018-03-18T03:00:47.414Z,-3.79
2018-03-18T03:03:15.214Z,-3.77
2018-03-18T03:05:42.864Z,-3.82
2018-03-18T03:08:10.507Z,-3.82
2018-03-18T03:10:38.112Z,-3.73
2018-03-18T03:13:05.759Z,-3.76
2018-03-18T03:15:33.363Z,-3.78
2018-03-18T03:18:00.933Z,-3.81
2018-03-18T03:20:28.550Z,-3.86
2018-03-18T03:22:56.140Z,-3.88
2018-03-18T03:25:23.766Z,-3.88
2018-03-18T03:27:51.354Z,-3.89
2018-03-18T03:30:18.956Z,-3.91
2018-03-18T03:32:46.583Z,-3.88
2018-03-18T03:35:14.202Z,-3.84
2018-03-18T03:37:41.841Z,-3.85
2018-03-18T03:40:09.442Z,-3.88
2018-03-18T03:42:37.040Z,-3.90
2018-03-18T03:45:04.667Z,-3.89
2018-03-18T03:47:32.227Z,-3.92
2018-03-18T03:49:59.892Z,-3.94
2018-03-18T03:52:27.459Z,-3.94
2018-03-18T03:54:55.046Z,-3.94
2018-03-18T03:57:22.719Z,-4.00
2018-03-18T03:59:50.396Z,-3.97
2018-03-18T04:02:18.174Z,-3.97
2018-03-18T04:04:45.848Z,-3.95
2018-03-18T04:07:13.518Z,-3.95
2018-03-18T04:09:41.197Z,-3.92
2018-03-18T04:12:08.786Z,-3.96
2018-03-18T04:14:36.445Z,-3.99
2018-03-18T04:17:04.093Z,-4.00
2018-03-18T04:19:31.655Z,-4.04
2018-03-18T04:21:59.247Z,-4.05
2018-03-18T04:24:26.887Z,-4.04
2018-03-18T04:26:54.538Z,-4.03
2018-03-18T04:29:22.190Z,-4.05
2018-03-18T04:31:49.811Z,-4.06
2018-03-18T04:34:17.383Z,-4.08
2018-03-18T04:36:44.979Z,-4.09
2018-03-18T04:39:12.621Z,-4.10
2018-03-18T04:41:40.214Z,-4.12
2018-03-18T04:44:07.788Z,-4.14
2018-03-18T04:46:35.406Z,-4.13
2018-03-18T04:49:02.979Z,-4.13
2018-03-18T04:51:30.551Z,-4.13
2018-03-18T04:53:58.166Z,-4.14
2018-03-18T04:56:25.743Z,-4.14
2018-03-18T04:58:53.386Z,-4.16
2018-03-18T05:01:20.969Z,-4.14
2018-03-18T05:03:48.571Z,-4.16
2018-03-18T05:06:16.213Z,-4.22
2018-03-18T05:08:43.816Z,-4.25
2018-03-18T05:11:11.417Z,-4.20
2018-03-18T05:13:39.039Z,-4.22
2018-03-18T05:16:06.653Z,-4.25
2018-03-18T05:18:34.223Z,-4.24
2018-03-18T05:21:01.859Z,-4.29
2018-03-18T05:23:29.479Z,-4.27
2018-03-18T05:25:57.047Z,-4.31
2018-03-18T05:28:24.678Z,-4.32
2018-03-18T05:30:52.265Z,-4.37
2018-03-18T05:33:19.892Z,-4.37
2018-03-18T05:35:47.463Z,-4.38
2018-03-18T05:38:15.173Z,-4.39
2018-03-18T05:40:42.774Z,-4.38
2018-03-18T05:43:10.390Z,-4.41
2018-03-18T05:45:38.039Z,-4.41
2018-03-18T05:48:05.662Z,-4.45
2018-03-18T05:50:33.239Z,-4.43
2018-03-18T05:53:00.891Z,-4.44
2018-03-18T05:55:28.477Z,-4.42
2018-03-18T05:57:56.055Z,-4.47
2018-03-18T06:00:23.720Z,-4.45
2018-03-18T06:02:51.319Z,-4.42
2018-03-18T06:05:19.032Z,-4.43
2018-03-18T06:07:46.659Z,-4.42
2018-03-18T06:10:14.331Z,-4.42
2018-03-18T06:12:41.893Z,-4.42
2018-03-18T06:15:09.564Z,-4.42
2018-03-18T06:17:37.319Z,-4.39
2018-03-18T06:20:05.125Z,-4.38
2018-03-18T06:22:32.726Z,-4.40
2018-03-18T06:25:00.493Z,-4.38
2018-03-18T06:27:28.183Z,-4.31
2018-03-18T06:29:55.751Z,-4.33
2018-03-18T06:32:23.404Z,-4.31
2018-03-18T06:34:50.999Z,-4.26
2018-03-18T06:37:18.719Z,-4.30
2018-03-18T06:39:46.295Z,-4.21
2018-03-18T06:42:13.982Z,-4.22
2018-03-18T06:44:41.662Z,-4.20
2018-03-18T06:47:09.251Z,-4.12
2018-03-18T06:49:36.847Z,-4.08
2018-03-18T06:52:04.515Z,-4.08
2018-03-18T06:54:32.087Z,-4.09
2018-03-18T06:56:59.674Z,-4.04
2018-03-18T06:59:27.279Z,-3.96
2018-03-18T07:01:54.870Z,-4.01
2018-03-18T07:04:22.495Z,-3.93
2018-03-18T07:06:50.063Z,-3.94
2018-03-18T07:09:17.623Z,-3.94
2018-03-18T07:11:45.271Z,-3.90
2018-03-18T07:14:12.850Z,-3.83
2018-03-18T07:16:40.429Z,-3.72
2018-03-18T07:19:08.075Z,-3.63
2018-03-18T07:21:35.682Z,-3.71
2018-03-18T07:24:03.247Z,-3.71
2018-03-18T07:26:31.021Z,-3.71
2018-03-18T07:28:58.606Z,-3.62
2018-03-18T07:31:26.231Z,-3.55
2018-03-18T07:33:53.793Z,-3.74
2018-03-18T07:36:21.356Z,-3.66
2018-03-18T07:38:49.012Z,-3.71
2018-03-18T07:41:16.599Z,-3.67
2018-03-18T07:43:44.213Z,-3.59
2018-03-18T07:46:11.879Z,-3.61
2018-03-18T07:48:39.444Z,-3.53
2018-03-18T07:51:07.034Z,-3.57
2018-03-18T07:53:34.633Z,-3.51
2018-03-18T07:56:02.219Z,-3.59
2018-03-18T07:58:29.846Z,-3.50
2018-03-18T08:00:57.546Z,-3.60
2018-03-18T08:03:25.122Z,-3.57
2018-03-18T08:05:52.699Z,-3.45
2018-03-18T08:08:20.376Z,-3.45
2018-03-18T08:10:47.966Z,-3.37
2018-03-18T08:13:15.579Z,-3.26
2018-03-18T08:15:43.230Z,-3.26
2018-03-18T08:18:10.795Z,-3.14
2018-03-18T08:20:38.370Z,-3.32
2018-03-18T08:23:05.982Z,-3.17
2018-03-18T08:25:33.623Z,-3.14
2018-03-18T08:28:01.234Z,-3.16
2018-03-18T08:30:28.799Z,-3.09
2018-03-18T08:32:56.470Z,-2.97
2018-03-18T08:35:24.039Z,-3.08
2018-03-18T08:37:51.626Z,-2.99
2018-03-18T08:40:19.283Z,-3.07
2018-03-18T08:42:46.868Z,-3.11
2018-03-18T08:45:14.461Z,-3.07
2018-03-18T08:47:42.050Z,-2.98
2018-03-18T08:50:09.702Z,-2.95
2018-03-18T08:52:37.318Z,-2.88
2018-03-18T08:55:04.974Z,-2.96
2018-03-18T08:57:32.600Z,-2.87
2018-03-18T09:00:00.173Z,-2.76
2018-03-18T09:02:27.759Z,-2.71
2018-03-18T09:04:55.373Z,-2.64
2018-03-18T09:07:22.962Z,-2.55
2018-03-18T09:09:50.590Z,-2.48
2018-03-18T09:12:18.166Z,-2.55
2018-03-18T09:14:45.786Z,-2.46
2018-03-18T09:17:13.365Z,-2.48
2018-03-18T09:19:41.008Z,-2.29
2018-03-18T09:22:08.612Z,-2.35
2018-03-18T09:24:36.228Z,-2.28
2018-03-18T09:27:03.925Z,-2.40
2018-03-18T09:29:31.525Z,-2.49
2018-03-18T09:31:59.110Z,-2.33
2018-03-18T09:34:26.759Z,-2.12
2018-03-18T09:36:54.506Z,-2.02
2018-03-18T09:39:22.110Z,-1.96
2018-03-18T09:41:49.759Z,-1.98
2018-03-18T09:44:17.335Z,-1.80
2018-03-18T09:46:44.905Z,-1.72
2018-03-18T09:49:12.626Z,-1.72
2018-03-18T09:51:40.243Z,-1.95
2018-03-18T09:54:07.844Z,-1.92
2018-03-18T09:56:35.472Z,-1.96
2018-03-18T09:59:03.118Z,-1.83
2018-03-18T10:01:30.896Z,-1.80
2018-03-18T10:03:58.552Z,-1.77
2018-03-18T10:06:26.160Z,-1.82
2018-03-18T10:08:53.733Z,-1.66
2018-03-18T10:11:21.378Z,-1.82
2018-03-18T10:13:49.071Z,-1.74
2018-03-18T10:16:16.644Z,-1.46
2018-03-18T10:18:44.419Z,-1.53
2018-03-18T10:21:12.084Z,-1.68
2018-03-18T10:23:39.664Z,-1.78
2018-03-18T10:26:07.289Z,-1.61
2018-03-18T10:28:34.894Z,-1.45
2018-03-18T10:31:02.547Z,-1.47
2018-03-18T10:33:30.542Z,-1.37
2018-03-18T10:35:58.167Z,-1.17
2018-03-18T10:38:25.794Z,-1.18
2018-03-18T10:40:53.418Z,-0.93
2018-03-18T10:43:20.986Z,-1.12
2018-03-18T10:45:48.575Z,-1.16
2018-03-18T10:48:16.206Z,-0.95
2018-03-18T10:50:43.799Z,-0.76
2018-03-18T10:53:11.428Z,-1.02
2018-03-18T10:55:39.024Z,-1.12
2018-03-18T10:58:06.651Z,-0.77
2018-03-18T11:00:39.814Z,-0.72
2018-03-18T11:03:07.435Z,-0.72
2018-03-18T11:05:35.015Z,-0.70
2018-03-18T11:08:03.520Z,-0.67
2018-03-18T11:10:31.079Z,-0.70
2018-03-18T11:12:58.747Z,-0.71
2018-03-18T11:15:26.333Z,-0.47
2018-03-18T11:17:53.926Z,-0.74
2018-03-18T11:20:21.567Z,-0.74
2018-03-18T11:22:49.175Z,-0.42
2018-03-18T11:25:16.827Z,-0.54
2018-03-18T11:27:44.396Z,-0.55
2018-03-18T11:30:12.023Z,-0.53
2018-03-18T11:32:39.648Z,-0.17
2018-03-18T11:35:07.218Z,0.32
2018-03-18T11:37:35.054Z,-0.09
2018-03-18T11:40:02.674Z,-0.08
2018-03-18T11:42:30.291Z,0.11
2018-03-18T11:44:58.051Z,0.09
2018-03-18T11:47:25.861Z,-0.17
2018-03-18T11:49:53.531Z,-0.06
2018-03-18T11:52:21.314Z,0.19
2018-03-18T11:54:49.092Z,-0.04
2018-03-18T11:57:16.682Z,-0.09
2018-03-18T11:59:44.267Z,-0.02
2018-03-18T12:02:11.913Z,0.19
2018-03-18T12:04:39.631Z,-0.05
2018-03-18T12:07:07.223Z,0.25
2018-03-18T12:09:34.808Z,0.55
2018-03-18T12:12:02.424Z,0.59
2018-03-18T12:14:29.991Z,0.48
2018-03-18T12:16:57.669Z,1.01
2018-03-18T12:19:25.374Z,0.89
2018-03-18T12:21:52.936Z,0.68
2018-03-18T12:24:20.591Z,0.64
2018-03-18T12:26:48.195Z,0.29
2018-03-18T12:29:15.830Z,0.36
2018-03-18T12:31:43.428Z,0.63
2018-03-18T12:34:11.026Z,0.76
2018-03-18T12:36:38.627Z,0.45
2018-03-18T12:39:06.328Z,0.71
2018-03-18T12:41:33.903Z,0.54
2018-03-18T12:44:01.477Z,0.55
2018-03-18T12:46:29.112Z,0.42
2018-03-18T12:48:56.684Z,0.41
2018-03-18T12:51:24.392Z,0.65
2018-03-18T12:53:52.065Z,0.46
2018-03-18T12:56:19.675Z,0.67
2018-03-18T12:58:47.317Z,0.74
2018-03-18T13:01:14.883Z,0.76
2018-03-18T13:03:42.671Z,0.72
2018-03-18T13:06:10.343Z,0.64
2018-03-18T13:08:38.018Z,0.59
2018-03-18T13:11:05.586Z,0.70
2018-03-18T13:13:33.230Z,0.69
2018-03-18T13:16:00.828Z,0.86
2018-03-18T13:18:28.516Z,0.72
2018-03-18T13:20:56.273Z,1.00
2018-03-18T13:23:23.828Z,0.94
2018-03-18T13:25:51.397Z,0.72
2018-03-18T13:28:19.029Z,0.59
2018-03-18T13:30:46.794Z,0.49
2018-03-18T13:33:14.378Z,0.59
2018-03-18T13:35:42.024Z,0.86
2018-03-18T13:38:09.584Z,1.11
2018-03-18T13:40:37.168Z,0.73
2018-03-18T13:43:04.919Z,0.91
2018-03-18T13:45:32.476Z,0.68
2018-03-18T13:48:00.051Z,0.65
2018-03-18T13:50:27.703Z,0.73
2018-03-18T13:52:55.358Z,0.92
2018-03-18T13:55:22.931Z,0.82
2018-03-18T13:57:50.811Z,0.73
2018-03-18T14:00:18.436Z,0.91
2018-03-18T14:02:46.046Z,0.93
2018-03-18T14:05:14.354Z,0.97
2018-03-18T14:07:41.986Z,1.03
2018-03-18T14:10:09.576Z,0.92
2018-03-18T14:12:37.174Z,0.98
2018-03-18T14:15:04.831Z,1.12
2018-03-18T14:17:32.525Z,1.39
2018-03-18T14:20:00.196Z,1.14
2018-03-18T14:22:27.803Z,0.95
2018-03-18T14:24:55.359Z,0.91
2018-03-18T14:27:23.188Z,0.96
2018-03-18T14:29:50.808Z,0.97
2018-03-18T14:32:18.494Z,0.98
2018-03-18T14:34:46.120Z,1.09
2018-03-18T14:37:13.739Z,0.92
2018-03-18T14:39:41.308Z,1.18
2018-03-18T14:42:08.872Z,1.11
2018-03-18T14:44:36.482Z,1.21
2018-03-18T14:47:04.082Z,1.30
2018-03-18T14:49:31.724Z,1.06
2018-03-18T14:51:59.287Z,1.25
2018-03-18T14:54:26.839Z,1.18
2018-03-18T14:56:54.456Z,1.12
2018-03-18T14:59:22.020Z,1.25
2018-03-18T15:01:49.579Z,1.29
2018-03-18T15:04:17.190Z,1.02
2018-03-18T15:06:44.771Z,1.04
2018-03-18T15:09:12.373Z,1.02
2018-03-18T15:11:40.004Z,0.98
2018-03-18T15:14:07.556Z,1.07
2018-03-18T15:16:35.169Z,1.03
2018-03-18T15:19:02.796Z,0.97
2018-03-18T15:21:30.355Z,1.20
2018-03-18T15:23:57.953Z,1.02
2018-03-18T15:26:25.571Z,1.06
2018-03-18T15:28:53.147Z,1.02
2018-03-18T15:31:20.759Z,1.08
2018-03-18T15:33:48.383Z,1.28
2018-03-18T15:36:16.115Z,1.15
2018-03-18T15:38:43.675Z,1.03
2018-03-18T15:41:11.287Z,1.08
2018-03-18T15:43:38.923Z,1.01
2018-03-18T15:46:06.484Z,1.12
2018-03-18T15:48:34.106Z,1.11
2018-03-18T15:51:01.675Z,0.88
2018-03-18T15:53:29.259Z,0.81
2018-03-18T15:55:56.900Z,0.88
2018-03-18T15:58:24.483Z,0.94
2018-03-18T16:00:52.149Z,0.95
2018-03-18T16:03:19.824Z,0.88
2018-03-18T16:05:47.506Z,0.80
2018-03-18T16:08:15.318Z,0.74
2018-03-18T16:10:43.050Z,0.73
2018-03-18T16:13:10.611Z,0.65
2018-03-18T16:15:38.190Z,0.68
2018-03-18T16:18:05.788Z,0.61
2018-03-18T16:20:33.449Z,0.57
2018-03-18T16:23:01.067Z,0.59
2018-03-18T16:25:28.650Z,0.59
2018-03-18T16:27:56.234Z,0.57
2018-03-18T16:30:35.512Z,0.50
2018-03-18T16:33:03.127Z,0.55
2018-03-18T16:35:30.714Z,0.59
2018-03-18T16:37:58.367Z,0.57
2018-03-18T16:40:26.009Z,0.53
2018-03-18T16:42:53.800Z,0.51
2018-03-18T16:45:21.460Z,0.44
2018-03-18T16:47:49.040Z,0.40
2018-03-18T16:50:16.635Z,0.39
2018-03-18T16:52:44.606Z,0.38
2018-03-18T16:55:12.256Z,0.41
2018-03-18T16:57:39.823Z,0.32
2018-03-18T17:00:07.435Z,0.28
2018-03-18T17:02:34.999Z,0.30
2018-03-18T17:05:02.672Z,0.32
2018-03-18T17:07:30.335Z,0.30
2018-03-18T17:09:58.021Z,0.29
2018-03-18T17:12:25.697Z,0.28
2018-03-18T17:14:53.378Z,0.26
2018-03-18T17:17:20.976Z,0.24
2018-03-18T17:19:48.538Z,0.19
2018-03-18T17:22:16.401Z,0.08
2018-03-18T17:24:43.978Z,-0.01
2018-03-18T17:27:11.535Z,0.02
2018-03-18T17:29:39.326Z,0.02
2018-03-18T17:32:07.102Z,-0.01
2018-03-18T17:34:34.877Z,-0.08
2018-03-18T17:37:02.541Z,-0.07
2018-03-18T17:39:30.108Z,-0.14
2018-03-18T17:41:57.906Z,-0.16
2018-03-18T17:44:37.346Z,-0.14
2018-03-18T17:47:16.797Z,-0.16
2018-03-18T17:49:56.138Z,-0.17
2018-03-18T17:52:35.607Z,-0.22
2018-03-18T17:55:15.251Z,-0.20
2018-03-18T17:57:42.846Z,-0.24
2018-03-18T18:00:10.624Z,-0.23
2018-03-18T18:02:38.396Z,-0.23
2018-03-18T18:05:06.275Z,-0.30
2018-03-18T18:07:33.871Z,-0.31
2018-03-18T18:10:01.522Z,-0.41
2018-03-18T18:12:29.355Z,-0.37
2018-03-18T18:14:56.992Z,-0.30
2018-03-18T18:17:24.603Z,-0.35
2018-03-18T18:19:52.249Z,-0.44
2018-03-18T18:22:19.819Z,-0.37
2018-03-18T18:24:47.682Z,-0.38
2018-03-18T18:27:15.280Z,-0.41
2018-03-18T18:29:42.871Z,-0.42
2018-03-18T18:32:10.546Z,-0.37
2018-03-18T18:34:38.147Z,-0.49
2018-03-18T18:37:05.857Z,-0.55
2018-03-18T18:39:33.637Z,-0.67
2018-03-18T18:42:01.471Z,-0.64
2018-03-18T18:44:29.124Z,-0.56
2018-03-18T18:46:56.859Z,-0.55
2018-03-18T18:49:24.427Z,-0.68
2018-03-18T18:51:52.210Z,-0.61
2018-03-18T18:54:19.834Z,-0.65
2018-03-18T18:56:47.674Z,-0.66
2018-03-18T18:59:15.332Z,-0.64
2018-03-18T19:01:43.016Z,-0.73
2018-03-18T19:04:10.603Z,-0.70
2018-03-18T19:06:38.199Z,-0.65
2018-03-18T19:09:06.043Z,-0.68
2018-03-18T19:11:33.766Z,-0.74
2018-03-18T19:14:01.500Z,-0.72
2018-03-18T19:16:29.272Z,-0.78
2018-03-18T19:18:57.051Z,-0.79
2018-03-18T19:21:24.634Z,-0.83
2018-03-18T19:23:52.509Z,-0.90
2018-03-18T19:26:20.066Z,-0.88
2018-03-18T19:28:47.754Z,-0.74
2018-03-18T19:31:15.431Z,-0.81
2018-03-18T19:33:43.209Z,-0.81
2018-03-18T19:36:10.827Z,-0.84
2018-03-18T19:38:38.663Z,-0.86
2018-03-18T19:41:06.437Z,-0.88
2018-03-18T19:43:34.098Z,-0.95
2018-03-18T19:46:01.888Z,-0.83
2018-03-18T19:48:29.547Z,-0.88
2018-03-18T19:50:57.252Z,-0.98
2018-03-18T19:53:24.851Z,-1.01
2018-03-18T19:55:52.411Z,-0.95
2018-03-18T19:58:20.175Z,-0.89
2018-03-18T20:00:47.943Z,-1.00
2018-03-18T20:03:15.722Z,-0.97
2018-03-18T20:05:43.507Z,-0.91
2018-03-18T20:08:11.280Z,-0.93
2018-03-18T20:10:38.939Z,-0.97
2018-03-18T20:13:06.615Z,-0.98
2018-03-18T20:15:34.230Z,-1.10
2018-03-18T20:18:02.007Z,-1.09
2018-03-18T20:20:29.651Z,-1.09
2018-03-18T20:22:57.325Z,-1.05
2018-03-18T20:25:25.001Z,-1.08
2018-03-18T20:27:52.749Z,-1.10
2018-03-18T20:30:20.456Z,-1.10
2018-03-18T20:32:48.030Z,-1.08
2018-03-18T20:35:15.694Z,-1.06
2018-03-18T20:37:43.332Z,-0.97
2018-03-18T20:40:10.931Z,-1.11
2018-03-18T20:42:38.501Z,-1.13
2018-03-18T20:45:06.107Z,-1.23
2018-03-18T20:47:33.779Z,-1.19
2018-03-18T20:50:07.576Z,-1.22
2018-03-18T20:52:35.264Z,-1.23
2018-03-18T20:55:03.051Z,-1.22
2018-03-18T20:57:30.829Z,-1.32
2018-03-18T20:59:58.504Z,-1.29
2018-03-18T21:02:26.390Z,-1.29
2018-03-18T21:04:54.161Z,-1.32
2018-03-18T21:07:21.746Z,-1.30
2018-03-18T21:09:49.392Z,-1.36
2018-03-18T21:12:17.019Z,-1.35
2018-03-18T21:14:44.766Z,-1.46
2018-03-18T21:17:12.541Z,-1.41
2018-03-18T21:19:40.266Z,-1.44
2018-03-18T21:22:07.854Z,-1.45
2018-03-18T21:24:35.484Z,-1.45
2018-03-18T21:27:03.119Z,-1.60
2018-03-18T21:29:30.719Z,-1.61
2018-03-18T21:31:58.348Z,-1.57
2018-03-18T21:34:38.971Z,-1.63
2018-03-18T21:37:06.672Z,-1.65
2018-03-18T21:39:34.248Z,-1.66
2018-03-18T21:42:01.891Z,-1.67
2018-03-18T21:44:29.671Z,-1.64
2018-03-18T21:46:57.394Z,-1.70
2018-03-18T21:49:25.021Z,-1.74
2018-03-18T21:51:52.682Z,-1.72
2018-03-18T21:54:20.362Z,-1.73
2018-03-18T21:56:47.946Z,-1.70
2018-03-18T21:59:15.562Z,-1.71
2018-03-18T22:01:43.182Z,-1.75
2018-03-18T22:04:10.972Z,-1.74
2018-03-18T22:06:38.626Z,-1.85
2018-03-18T22:09:06.193Z,-1.81
2018-03-18T22:11:34.031Z,-1.81
2018-03-18T22:14:01.665Z,-1.88
2018-03-18T22:16:29.234Z,-1.90
2018-03-18T22:18:57.027Z,-1.92
2018-03-18T22:21:24.619Z,-1.95
2018-03-18T22:23:52.241Z,-1.95
2018-03-18T22:26:20.050Z,-1.96
2018-03-18T22:28:47.726Z,-1.97
2018-03-18T22:31:15.389Z,-1.97
2018-03-18T22:33:42.977Z,-2.03
2018-03-18T22:36:10.860Z,-2.03
2018-03-18T22:38:38.519Z,-2.04
2018-03-18T22:41:06.243Z,-2.13
2018-03-18T22:43:33.886Z,-2.13
2018-03-18T22:46:01.494Z,-2.16
2018-03-18T22:48:29.228Z,-2.14
2018-03-18T22:50:56.906Z,-2.17
2018-03-18T22:53:24.469Z,-2.10
2018-03-18T22:55:52.228Z,-2.14
2018-03-18T22:58:20.039Z,-2.16
2018-03-18T23:00:47.734Z,-2.16
2018-03-18T23:03:15.392Z,-2.19
2018-03-18T23:05:43.171Z,-2.17
2018-03-18T23:08:10.906Z,-2.18
2018-03-18T23:10:38.633Z,-2.23
2018-03-18T23:13:06.247Z,-2.26
2018-03-18T23:15:33.925Z,-2.21
2018-03-18T23:18:01.621Z,-2.29
2018-03-18T23:20:29.316Z,-2.25
2018-03-18T23:22:57.100Z,-2.32
2018-03-18T23:25:24.699Z,-2.33
2018-03-18T23:27:52.327Z,-2.35
2018-03-18T23:30:19.907Z,-2.31
2018-03-18T23:32:47.492Z,-2.34
2018-03-18T23:35:15.169Z,-2.40
2018-03-18T23:37:42.756Z,-2.35
2018-03-18T23:40:10.418Z,-2.35
2018-03-18T23:42:38.145Z,-2.38
2018-03-18T23:45:05.744Z,-2.48
2018-03-18T23:47:33.354Z,-2.44
2018-03-18T23:50:01.002Z,-2.45
2018-03-18T23:52:28.744Z,-2.43
2018-03-18T23:54:56.468Z,-2.41
2018-03-18T23:57:24.255Z,-2.42
2018-03-18T23:59:51.969Z,-2.50
